createdAt,value
2022-10-29T00:00:54.744Z,15.14
2022-10-29T00:03:22.137Z,15.34
2022-10-29T00:06:03.264Z,15.29
2022-10-29T00:08:31.448Z,15.39
2022-10-29T00:11:08.632Z,15.33
2022-10-29T00:13:36.422Z,15.27
2022-10-29T00:16:15.300Z,15.37
2022-10-29T00:18:42.376Z,15.49
2022-10-29T00:21:13.662Z,15.78
2022-10-29T00:23:40.776Z,15.64
2022-10-29T00:26:07.739Z,15.58
2022-10-29T00:28:34.554Z,15.58
2022-10-29T00:31:09.766Z,15.67
2022-10-29T00:33:36.314Z,15.70
2022-10-29T00:36:10.097Z,15.75
2022-10-29T00:38:36.656Z,15.80
2022-10-29T00:41:05.539Z,15.78
2022-10-29T00:43:37.665Z,15.81
2022-10-29T00:46:08.993Z,16.00
2022-10-29T00:48:41.871Z,15.77
2022-10-29T00:51:10.887Z,15.65
2022-10-29T00:53:41.773Z,15.82
2022-10-29T00:56:08.434Z,15.71
2022-10-29T00:58:35.254Z,15.64
2022-10-29T01:01:02.394Z,15.61
2022-10-29T01:03:28.966Z,15.54
2022-10-29T01:05:55.675Z,15.39
2022-10-29T01:08:22.557Z,15.49
2022-10-29T01:10:52.060Z,15.46
2022-10-29T01:13:33.225Z,15.37
2022-10-29T01:16:27.299Z,15.46
2022-10-29T01:19:02.861Z,15.40
2022-10-29T01:21:40.354Z,15.29
2022-10-29T01:24:12.941Z,15.37
2022-10-29T01:26:49.013Z,15.23
2022-10-29T01:29:32.548Z,15.22
2022-10-29T01:32:33.913Z,15.14
2022-10-29T01:35:08.157Z,14.99
2022-10-29T01:37:45.121Z,14.83
2022-10-29T01:40:45.195Z,14.71
2022-10-29T01:43:17.553Z,14.69
2022-10-29T01:45:52.879Z,14.71
2022-10-29T01:48:29.021Z,14.65
2022-10-29T01:51:03.695Z,14.68
2022-10-29T01:53:33.916Z,14.68
2022-10-29T01:56:00.396Z,14.71
2022-10-29T01:58:26.930Z,14.62
2022-10-29T02:01:20.246Z,14.57
2022-10-29T02:04:05.251Z,14.48
2022-10-29T02:06:45.954Z,14.57
2022-10-29T02:09:21.333Z,14.49
2022-10-29T02:11:54.736Z,14.55
2022-10-29T02:14:27.981Z,14.65
2022-10-29T02:16:59.234Z,14.55
2022-10-29T02:19:30.956Z,14.54
2022-10-29T02:21:57.451Z,14.40
2022-10-29T02:24:24.765Z,14.34
2022-10-29T02:26:52.029Z,14.41
2022-10-29T02:29:18.903Z,14.31
2022-10-29T02:31:45.514Z,14.24
2022-10-29T02:34:12.299Z,14.25
2022-10-29T02:36:38.802Z,14.32
2022-10-29T02:39:05.310Z,14.55
2022-10-29T02:41:31.926Z,14.52
2022-10-29T02:43:58.402Z,14.52
2022-10-29T02:46:25.140Z,14.45
2022-10-29T02:48:51.618Z,14.54
2022-10-29T02:51:18.498Z,14.51
2022-10-29T02:53:45.063Z,14.55
2022-10-29T02:56:11.652Z,14.68
2022-10-29T02:58:38.603Z,14.65
2022-10-29T03:01:06.869Z,14.61
2022-10-29T03:03:33.361Z,14.55
2022-10-29T03:05:59.849Z,14.51
2022-10-29T03:08:26.429Z,14.62
2022-10-29T03:10:54.879Z,14.55
2022-10-29T03:13:21.414Z,14.51
2022-10-29T03:15:47.947Z,14.57
2022-10-29T03:18:14.665Z,14.58
2022-10-29T03:20:42.745Z,14.65
2022-10-29T03:23:09.233Z,14.55
2022-10-29T03:25:35.802Z,14.52
2022-10-29T03:28:02.310Z,14.52
2022-10-29T03:30:28.886Z,14.40
2022-10-29T03:32:55.788Z,14.46
2022-10-29T03:35:22.427Z,14.49
2022-10-29T03:37:50.925Z,14.46
2022-10-29T03:40:18.746Z,14.32
2022-10-29T03:42:46.062Z,14.34
2022-10-29T03:45:12.631Z,14.31
2022-10-29T03:47:39.265Z,14.23
2022-10-29T03:50:06.270Z,14.16
2022-10-29T03:52:32.694Z,14.10
2022-10-29T03:54:59.191Z,14.03
2022-10-29T03:57:25.696Z,14.02
2022-10-29T03:59:52.764Z,14.00
2022-10-29T04:02:19.862Z,13.93
2022-10-29T04:04:46.570Z,13.87
2022-10-29T04:07:13.131Z,13.86
2022-10-29T04:09:39.870Z,13.87
2022-10-29T04:12:07.097Z,13.84
2022-10-29T04:14:33.661Z,13.87
2022-10-29T04:17:00.449Z,13.84
2022-10-29T04:19:26.990Z,13.79
2022-10-29T04:32:45.591Z,13.61
2022-10-29T04:35:12.083Z,13.51
2022-10-29T04:37:38.691Z,13.48
2022-10-29T04:40:05.689Z,13.53
2022-10-29T04:42:39.166Z,13.48
2022-10-29T04:45:07.375Z,13.38
2022-10-29T04:47:34.254Z,13.29
2022-10-29T04:50:00.923Z,13.21
2022-10-29T04:52:27.437Z,13.11
2022-10-29T04:54:53.920Z,13.01
2022-10-29T04:57:20.437Z,13.00
2022-10-29T04:59:46.865Z,13.01
2022-10-29T05:02:13.382Z,13.04
2022-10-29T05:04:40.307Z,12.97
2022-10-29T05:07:06.775Z,13.12
2022-10-29T05:09:33.311Z,13.07
2022-10-29T05:11:59.836Z,13.00
2022-10-29T05:14:26.361Z,13.15
2022-10-29T05:16:52.902Z,13.12
2022-10-29T05:19:19.400Z,13.04
2022-10-29T05:21:46.115Z,13.10
2022-10-29T05:24:12.608Z,13.01
2022-10-29T05:26:39.076Z,12.95
2022-10-29T05:29:05.534Z,13.01
2022-10-29T05:31:32.188Z,13.00
2022-10-29T05:33:58.840Z,13.04
2022-10-29T05:36:25.366Z,13.16
2022-10-29T05:38:51.869Z,13.28
2022-10-29T05:41:18.397Z,13.29
2022-10-29T05:43:48.597Z,13.22
2022-10-29T05:46:16.628Z,13.32
2022-10-29T05:48:43.113Z,13.25
2022-10-29T05:51:09.820Z,13.22
2022-10-29T05:53:36.611Z,13.14
2022-10-29T05:56:03.216Z,13.04
2022-10-29T05:58:29.719Z,13.10
2022-10-29T06:00:56.201Z,13.00
2022-10-29T06:03:23.308Z,12.88
2022-10-29T06:05:50.847Z,12.81
2022-10-29T06:08:17.752Z,12.74
2022-10-29T06:10:44.527Z,12.67
2022-10-29T06:13:12.635Z,12.63
2022-10-29T06:15:39.291Z,12.74
2022-10-29T06:18:05.826Z,12.76
2022-10-29T06:20:32.508Z,12.71
2022-10-29T06:22:59.358Z,12.71
2022-10-29T06:25:27.030Z,12.80
2022-10-29T06:28:03.664Z,12.79
2022-10-29T06:30:32.247Z,12.84
2022-10-29T06:32:59.750Z,12.85
2022-10-29T06:35:26.576Z,12.84
2022-10-29T06:37:53.418Z,12.83
2022-10-29T06:40:20.488Z,12.88
2022-10-29T06:42:47.068Z,12.84
2022-10-29T06:45:14.796Z,12.81
2022-10-29T06:47:43.088Z,12.80
2022-10-29T06:50:10.646Z,12.85
2022-10-29T06:52:37.910Z,12.97
2022-10-29T06:55:06.055Z,13.07
2022-10-29T06:57:32.695Z,13.14
2022-10-29T07:00:03.696Z,13.14
2022-10-29T07:02:33.966Z,13.21
2022-10-29T07:05:00.516Z,13.29
2022-10-29T07:07:29.328Z,13.35
2022-10-29T07:09:55.884Z,13.36
2022-10-29T07:12:22.620Z,13.43
2022-10-29T07:14:49.381Z,13.49
2022-10-29T07:17:16.018Z,13.59
2022-10-29T07:19:42.486Z,13.66
2022-10-29T07:22:09.052Z,13.76
2022-10-29T07:24:35.581Z,13.82
2022-10-29T07:27:02.090Z,13.89
2022-10-29T07:29:28.648Z,13.94
2022-10-29T07:31:55.174Z,14.02
2022-10-29T07:34:21.706Z,14.09
2022-10-29T07:36:48.249Z,14.20
2022-10-29T07:39:14.757Z,14.30
2022-10-29T07:41:41.203Z,14.40
2022-10-29T07:44:07.698Z,14.51
2022-10-29T07:46:34.118Z,14.64
2022-10-29T07:49:00.806Z,14.71
2022-10-29T07:51:27.401Z,14.76
2022-10-29T07:53:54.625Z,14.91
2022-10-29T07:56:21.143Z,14.96
2022-10-29T07:58:47.661Z,15.02
2022-10-29T08:01:14.392Z,15.14
2022-10-29T08:03:40.943Z,15.20
2022-10-29T08:06:07.654Z,15.27
2022-10-29T08:08:34.934Z,15.43
2022-10-29T08:11:02.990Z,15.55
2022-10-29T08:13:29.741Z,15.71
2022-10-29T08:15:56.689Z,15.81
2022-10-29T08:18:23.241Z,15.87
2022-10-29T08:20:49.871Z,15.98
2022-10-29T08:23:16.614Z,16.05
2022-10-29T08:25:45.141Z,16.15
2022-10-29T08:28:15.621Z,16.23
2022-10-29T08:30:43.985Z,16.36
2022-10-29T08:33:11.011Z,16.53
2022-10-29T08:35:37.594Z,16.60
2022-10-29T08:38:04.081Z,16.69
2022-10-29T08:41:01.398Z,16.80
2022-10-29T08:43:47.692Z,16.87
2022-10-29T08:46:23.287Z,16.88
2022-10-29T08:48:55.566Z,16.94
2022-10-29T08:51:21.975Z,17.10
2022-10-29T08:54:10.396Z,17.03
2022-10-29T08:56:44.105Z,17.39
2022-10-29T08:59:14.877Z,17.49
2022-10-29T09:01:42.294Z,17.69
2022-10-29T09:04:30.049Z,18.03
2022-10-29T09:07:14.303Z,18.48
2022-10-29T09:09:46.979Z,18.81
2022-10-29T09:12:51.234Z,19.59
2022-10-29T09:15:27.588Z,19.61
2022-10-29T09:18:25.790Z,19.78
2022-10-29T09:21:22.192Z,19.59
2022-10-29T09:23:58.472Z,19.69
2022-10-29T09:26:32.031Z,19.54
2022-10-29T09:29:35.592Z,19.74
2022-10-29T09:32:11.792Z,19.73
2022-10-29T09:34:50.667Z,19.84
2022-10-29T09:37:25.036Z,19.70
2022-10-29T09:39:53.519Z,19.43
2022-10-29T09:42:28.676Z,19.20
2022-10-29T09:45:02.882Z,19.33
2022-10-29T09:47:47.422Z,19.19
2022-10-29T09:50:30.444Z,18.87
2022-10-29T09:52:57.287Z,18.98
2022-10-29T09:55:30.294Z,18.92
2022-10-29T09:57:57.576Z,19.15
2022-10-29T10:00:27.762Z,19.05
2022-10-29T10:03:12.776Z,18.79
2022-10-29T10:06:04.423Z,19.10
2022-10-29T10:08:32.691Z,19.09
2022-10-29T10:11:07.333Z,19.24
2022-10-29T10:13:51.133Z,19.26
2022-10-29T10:16:24.958Z,19.24
2022-10-29T10:18:51.524Z,19.12
2022-10-29T10:21:32.897Z,19.05
2022-10-29T10:24:00.432Z,18.92
2022-10-29T10:26:44.714Z,18.52
2022-10-29T10:29:14.716Z,18.48
2022-10-29T10:31:43.352Z,18.71
2022-10-29T10:34:21.906Z,18.69
2022-10-29T10:37:02.137Z,19.13
2022-10-29T10:39:34.945Z,19.40
2022-10-29T10:42:05.383Z,19.50
2022-10-29T10:44:33.105Z,19.70
2022-10-29T10:47:05.981Z,19.22
2022-10-29T10:49:34.741Z,19.40
2022-10-29T10:52:14.183Z,19.23
2022-10-29T10:54:58.016Z,19.36
2022-10-29T10:57:29.240Z,19.53
2022-10-29T11:00:17.563Z,19.69
2022-10-29T11:03:13.567Z,19.78
2022-10-29T11:05:46.529Z,19.50
2022-10-29T11:08:37.248Z,19.73
2022-10-29T11:11:22.839Z,19.82
2022-10-29T11:13:51.161Z,19.90
2022-10-29T11:16:54.998Z,20.05
2022-10-29T11:19:43.051Z,19.97
2022-10-29T11:22:22.653Z,20.28
2022-10-29T11:24:57.347Z,20.29
2022-10-29T11:27:48.780Z,20.48
2022-10-29T11:30:17.963Z,20.80
2022-10-29T11:33:05.713Z,20.53
2022-10-29T11:36:00.542Z,20.55
2022-10-29T11:38:46.466Z,20.22
2022-10-29T11:41:27.977Z,20.39
2022-10-29T11:43:54.874Z,20.08
2022-10-29T11:46:46.639Z,20.21
2022-10-29T11:49:37.465Z,20.07
2022-10-29T11:52:14.201Z,20.26
2022-10-29T11:55:12.310Z,20.19
2022-10-29T11:58:23.405Z,20.26
2022-10-29T12:01:34.423Z,20.22
2022-10-29T12:04:24.128Z,20.01
2022-10-29T12:07:09.386Z,20.21
2022-10-29T12:10:11.216Z,20.28
2022-10-29T12:12:54.899Z,20.40
2022-10-29T12:15:37.051Z,20.28
2022-10-29T12:18:13.433Z,20.14
2022-10-29T12:20:47.514Z,20.10
2022-10-29T12:23:53.910Z,20.07
2022-10-29T12:26:31.562Z,20.33
2022-10-29T12:29:28.953Z,20.62
2022-10-29T12:32:12.887Z,20.46
2022-10-29T12:35:06.489Z,20.65
2022-10-29T12:37:57.942Z,20.69
2022-10-29T12:40:28.787Z,21.03
2022-10-29T12:42:57.363Z,21.11
2022-10-29T12:45:48.050Z,21.31
2022-10-29T12:48:37.318Z,21.12
2022-10-29T12:51:18.022Z,21.34
2022-10-29T12:54:01.159Z,21.04
2022-10-29T12:56:30.251Z,20.70
2022-10-29T12:58:59.574Z,20.80
2022-10-29T13:01:49.988Z,21.03
2022-10-29T13:04:22.408Z,21.03
2022-10-29T13:07:04.882Z,21.08
2022-10-29T13:09:36.735Z,21.21
2022-10-29T13:12:11.011Z,21.32
2022-10-29T13:14:40.405Z,21.47
2022-10-29T13:17:31.095Z,21.68
2022-10-29T13:20:00.830Z,21.69
2022-10-29T13:22:34.881Z,21.34
2022-10-29T13:25:29.509Z,21.68
2022-10-29T13:27:56.040Z,21.62
2022-10-29T13:30:25.665Z,21.82
2022-10-29T13:32:54.892Z,22.05
2022-10-29T13:35:21.747Z,22.09
2022-10-29T13:38:17.802Z,21.99
2022-10-29T13:41:11.937Z,21.71
2022-10-29T13:43:40.215Z,21.96
2022-10-29T13:46:17.292Z,21.98
2022-10-29T13:48:46.349Z,21.69
2022-10-29T13:51:18.128Z,21.83
2022-10-29T13:54:07.838Z,21.81
2022-10-29T13:56:54.325Z,21.74
2022-10-29T13:59:28.492Z,21.77
2022-10-29T14:02:02.908Z,21.89
2022-10-29T14:04:38.741Z,21.79
2022-10-29T14:07:12.174Z,21.83
2022-10-29T14:09:46.938Z,21.82
2022-10-29T14:12:24.898Z,21.81
2022-10-29T14:15:08.381Z,21.81
2022-10-29T14:17:35.076Z,21.72
2022-10-29T14:20:01.792Z,21.69
2022-10-29T14:22:38.161Z,21.47
2022-10-29T14:25:24.737Z,21.12
2022-10-29T14:28:17.641Z,20.83
2022-10-29T14:30:46.299Z,20.63
2022-10-29T14:33:26.056Z,20.42
2022-10-29T14:36:01.423Z,20.15
2022-10-29T14:38:36.424Z,19.91
2022-10-29T14:41:03.135Z,19.71
2022-10-29T14:43:30.189Z,19.53
2022-10-29T14:46:10.717Z,19.36
2022-10-29T14:48:38.811Z,19.18
2022-10-29T14:51:05.884Z,19.08
2022-10-29T14:53:35.183Z,18.94
2022-10-29T14:56:09.464Z,18.84
2022-10-29T14:58:37.910Z,18.76
2022-10-29T15:01:12.200Z,18.62
2022-10-29T15:03:39.026Z,18.55
2022-10-29T15:06:13.956Z,18.44
2022-10-29T15:08:42.677Z,18.41
2022-10-29T15:11:27.804Z,18.29
2022-10-29T15:13:54.366Z,18.18
2022-10-29T15:16:21.507Z,18.10
2022-10-29T15:18:53.331Z,18.00
2022-10-29T15:21:24.502Z,17.92
2022-10-29T15:23:56.269Z,17.83
2022-10-29T15:26:22.933Z,17.71
2022-10-29T15:28:52.467Z,17.61
2022-10-29T15:31:24.334Z,17.53
2022-10-29T15:33:52.810Z,17.45
2022-10-29T15:36:19.423Z,17.35
2022-10-29T15:38:52.320Z,17.25
2022-10-29T15:41:45.189Z,17.17
2022-10-29T15:44:36.102Z,17.11
2022-10-29T15:47:19.600Z,17.10
2022-10-29T15:49:46.107Z,17.07
2022-10-29T15:52:17.666Z,17.04
2022-10-29T15:54:44.664Z,17.04
2022-10-29T15:57:14.350Z,17.01
2022-10-29T15:59:41.276Z,16.97
2022-10-29T16:02:19.107Z,16.97
2022-10-29T16:04:45.703Z,16.94
2022-10-29T16:07:16.048Z,16.95
2022-10-29T16:09:49.137Z,16.91
2022-10-29T16:12:16.015Z,16.87
2022-10-29T16:14:42.631Z,16.80
2022-10-29T16:17:18.145Z,16.80
2022-10-29T16:19:44.899Z,16.76
2022-10-29T16:22:14.506Z,16.73
2022-10-29T16:24:41.424Z,16.69
2022-10-29T16:27:16.401Z,16.64
2022-10-29T16:29:42.921Z,16.56
2022-10-29T16:32:27.299Z,16.49
2022-10-29T16:34:53.806Z,16.43
2022-10-29T16:37:21.657Z,16.38
2022-10-29T16:39:48.202Z,16.28
2022-10-29T16:42:29.716Z,16.25
2022-10-29T16:44:56.524Z,16.21
2022-10-29T16:47:23.336Z,16.13
2022-10-29T16:49:49.831Z,16.11
2022-10-29T16:52:20.969Z,16.05
2022-10-29T16:54:49.046Z,15.98
2022-10-29T16:57:15.599Z,15.94
2022-10-29T16:59:42.045Z,15.85
2022-10-29T17:02:10.788Z,15.81
2022-10-29T17:04:37.343Z,15.78
2022-10-29T17:07:03.956Z,15.77
2022-10-29T17:09:30.830Z,15.71
2022-10-29T17:11:57.694Z,15.70
2022-10-29T17:14:24.770Z,15.67
2022-10-29T17:16:51.329Z,15.63
2022-10-29T17:19:17.861Z,15.61
2022-10-29T17:21:44.446Z,15.55
2022-10-29T17:24:11.170Z,15.53
2022-10-29T17:26:37.649Z,15.51
2022-10-29T17:29:04.219Z,15.49
2022-10-29T17:31:30.727Z,15.47
2022-10-29T17:33:57.222Z,15.44
2022-10-29T17:36:23.679Z,15.41
2022-10-29T17:38:50.176Z,15.37
2022-10-29T17:41:16.627Z,15.33
2022-10-29T17:43:43.261Z,15.30
2022-10-29T17:46:09.817Z,15.24
2022-10-29T17:48:36.790Z,15.22
2022-10-29T17:51:03.435Z,15.19
2022-10-29T17:53:31.311Z,15.19
2022-10-29T17:55:59.314Z,15.13
2022-10-29T17:58:26.675Z,15.09
2022-10-29T18:00:53.492Z,15.04
2022-10-29T18:03:20.106Z,14.99
2022-10-29T18:05:47.060Z,14.92
2022-10-29T18:08:13.598Z,14.86
2022-10-29T18:10:40.131Z,14.79
2022-10-29T18:13:06.587Z,14.73
2022-10-29T18:15:33.108Z,14.65
2022-10-29T18:18:00.692Z,14.60
2022-10-29T18:20:27.177Z,14.52
2022-10-29T18:22:55.981Z,14.48
2022-10-29T18:25:22.963Z,14.42
2022-10-29T18:27:55.372Z,14.41
2022-10-29T18:30:22.856Z,14.35
2022-10-29T18:32:49.554Z,14.32
2022-10-29T18:35:16.530Z,14.32
2022-10-29T18:37:43.097Z,14.31
2022-10-29T18:40:11.859Z,14.31
2022-10-29T18:42:38.555Z,14.31
2022-10-29T18:45:05.622Z,14.30
2022-10-29T18:47:32.188Z,14.30
2022-10-29T18:49:58.763Z,14.32
2022-10-29T18:52:25.256Z,14.30
2022-10-29T18:54:51.851Z,14.30
2022-10-29T18:57:19.482Z,14.28
2022-10-29T18:59:46.229Z,14.25
2022-10-29T19:02:12.857Z,14.23
2022-10-29T19:04:39.530Z,14.18
2022-10-29T19:07:06.122Z,14.14
2022-10-29T19:09:32.712Z,14.17
2022-10-29T19:11:59.654Z,14.16
2022-10-29T19:14:26.321Z,14.13
2022-10-29T19:16:52.844Z,14.11
2022-10-29T19:19:22.882Z,14.11
2022-10-29T19:21:50.646Z,14.11
2022-10-29T19:24:17.715Z,14.09
2022-10-29T19:26:44.333Z,14.11
2022-10-29T19:29:11.266Z,14.06
2022-10-29T19:31:37.756Z,14.02
2022-10-29T19:34:06.646Z,13.97
2022-10-29T19:36:35.032Z,13.93
2022-10-29T19:39:01.916Z,13.89
2022-10-29T19:41:29.302Z,13.82
2022-10-29T19:43:59.938Z,13.77
2022-10-29T19:46:26.556Z,13.70
2022-10-29T19:48:54.840Z,13.67
2022-10-29T19:51:22.475Z,13.62
2022-10-29T19:53:51.299Z,13.59
2022-10-29T19:56:18.627Z,13.55
2022-10-29T19:58:45.640Z,13.52
2022-10-29T20:01:16.006Z,13.51
2022-10-29T20:03:43.266Z,13.48
2022-10-29T20:06:11.150Z,13.46
2022-10-29T20:08:38.014Z,13.43
2022-10-29T20:11:05.411Z,13.43
2022-10-29T20:13:32.149Z,13.48
2022-10-29T20:15:58.750Z,13.51
2022-10-29T20:18:25.463Z,13.52
2022-10-29T20:20:56.474Z,13.56
2022-10-29T20:23:25.568Z,13.53
2022-10-29T20:25:52.220Z,13.55
2022-10-29T20:28:18.771Z,13.55
2022-10-29T20:30:45.290Z,13.55
2022-10-29T20:33:11.893Z,13.53
2022-10-29T20:35:38.604Z,13.53
2022-10-29T20:38:05.783Z,13.53
2022-10-29T20:40:32.397Z,13.48
2022-10-29T20:42:59.013Z,13.49
2022-10-29T20:45:25.568Z,13.46
2022-10-29T20:47:52.109Z,13.45
2022-10-29T20:50:18.666Z,13.45
2022-10-29T20:52:48.650Z,13.45
2022-10-29T20:55:16.036Z,13.46
2022-10-29T20:57:42.664Z,13.48
2022-10-29T21:00:09.821Z,13.46
2022-10-29T21:02:36.453Z,13.46
2022-10-29T21:05:03.188Z,13.43
2022-10-29T21:07:29.719Z,13.45
2022-10-29T21:09:56.293Z,13.42
2022-10-29T21:12:22.827Z,13.43
2022-10-29T21:14:49.328Z,13.41
2022-10-29T21:17:15.813Z,13.41
2022-10-29T21:19:42.386Z,13.41
2022-10-29T21:22:08.908Z,13.39
2022-10-29T21:24:35.743Z,13.39
2022-10-29T21:27:02.622Z,13.38
2022-10-29T21:29:29.169Z,13.36
2022-10-29T21:31:55.805Z,13.36
2022-10-29T21:34:22.622Z,13.35
2022-10-29T21:36:49.594Z,13.32
2022-10-29T21:39:16.168Z,13.34
2022-10-29T21:41:42.691Z,13.34
2022-10-29T21:44:09.329Z,13.32
2022-10-29T21:46:35.899Z,13.32
2022-10-29T21:49:02.387Z,13.34
2022-10-29T21:51:28.882Z,13.31
2022-10-29T21:53:55.534Z,13.32
2022-10-29T21:56:22.068Z,13.31
2022-10-29T21:58:51.314Z,13.32
2022-10-29T22:01:18.643Z,13.31
2022-10-29T22:03:46.760Z,13.31
2022-10-29T22:06:14.656Z,13.32
2022-10-29T22:08:41.532Z,13.32
2022-10-29T22:11:08.154Z,13.32
2022-10-29T22:13:35.194Z,13.31
2022-10-29T22:16:03.761Z,13.32
2022-10-29T22:18:30.729Z,13.34
2022-10-29T22:21:04.009Z,13.31
2022-10-29T22:23:30.510Z,13.29
2022-10-29T22:25:57.122Z,13.29
2022-10-29T22:28:23.629Z,13.29
2022-10-29T22:30:57.177Z,13.29
2022-10-29T22:33:23.742Z,13.29
2022-10-29T22:35:50.247Z,13.25
2022-10-29T22:38:16.665Z,13.28
2022-10-29T22:40:43.159Z,13.25
2022-10-29T22:43:09.681Z,13.22
2022-10-29T22:45:36.233Z,13.21
2022-10-29T22:48:02.742Z,13.22
2022-10-29T22:50:29.241Z,13.22
2022-10-29T22:52:56.464Z,13.18
2022-10-29T22:55:23.178Z,13.14
2022-10-29T22:57:49.696Z,13.11
2022-10-29T23:00:16.849Z,13.08
2022-10-29T23:02:43.392Z,13.05
2022-10-29T23:05:09.946Z,13.04
2022-10-29T23:07:36.497Z,13.01
2022-10-29T23:10:03.326Z,12.97
2022-10-29T23:12:30.029Z,12.95
2022-10-29T23:14:56.462Z,12.93
2022-10-29T23:17:23.129Z,12.95
2022-10-29T23:19:49.742Z,12.93
2022-10-29T23:22:16.241Z,12.91
2022-10-29T23:24:42.743Z,12.85
2022-10-29T23:27:09.244Z,12.85
2022-10-29T23:29:36.381Z,12.80
2022-10-29T23:32:03.619Z,12.77
2022-10-29T23:34:30.142Z,12.73
2022-10-29T23:36:57.654Z,12.70
2022-10-29T23:39:24.107Z,12.64
2022-10-29T23:41:50.549Z,12.61
2022-10-29T23:44:17.124Z,12.60
2022-10-29T23:46:43.626Z,12.59
2022-10-29T23:49:10.504Z,12.53
2022-10-29T23:51:37.016Z,12.54
2022-10-29T23:54:03.607Z,12.52
2022-10-29T23:56:30.115Z,12.53
2022-10-29T23:58:56.688Z,12.53
